Aérodrome :
LOGIN :

S'inscrire | Disclaimer

   EN    FR    IT 

 










Légende :    VFR   VFR Marginal   IFR   IFR Intensif   IFR Très Intensif
Visi : 
Plafond : 
>= 8 km
>= 3000ft
5 à 8 km
1000 à 3000 ft
1500m à 5 km
500 à 1000 ft
800 à 1500m
200 à 500 ft
< 800m
< 200 ft
Symboles :   Orages  Brouillard  Fortes neiges  Fortes précipitations  Vent > 20 kt
SIGMETs :   Divers  Orages  Givrage  Turbulence  Onde Orograph.  Cendres Volcan.






- Altitude de l'aérodrome : 794 ft


LKCV - Čáslav Air Base

DERNIER METAR :
  • 062100Z 28010KT 260V320 CAVOK 14/07 Q1017 NOSIG

METARs EXPIRÉS :
  • 062030Z 23005KT CAVOK 15/09 Q1016 NOSIG
  • 062000Z 24006KT CAVOK 15/09 Q1015 NOSIG RMK BLU BLU
  • 061930Z 31005KT CAVOK 17/08 Q1014 NOSIG RMK BLU BLU
  • 061900Z 33010KT CAVOK 19/05 Q1014 NOSIG RMK BLU BLU
  • 061830Z 32014KT CAVOK 20/05 Q1013 NOSIG RMK BLU BLU

TAF TAF LKCV
Valide du 06 à 18h jusqu'au 07 à 18h UTC


061700Z 0618/0718 26010KT CAVOK
TEMPO 0618/0700 32015G25KT
PROB30
TEMPO 0621/0700 SHRA BKN040
BECMG 0701/0704 BKN030
TEMPO 0706/0712 32010G20KT
BECMG 0712/0714 30006KT CAVOK



MET'MAP, la Météo Aéronautique d'un coup d'oeil ! - Copyright ORBIFLY Décembre 2007 - Disclaimer

ORBIFLY MET'MAP TEAM :

Programmation & Développement : Alexandra Zaïnal
Sur une idée originale de : Baudouin d'Aumeries
Assistance à la programmation : Marc-Olivier Méhu
Soutien technique & logistique : Manuel Goepfert

Contact : metmap@orbifly.com




SOURCES & CREDITS :

   NOAA